| time (UTC) | temp C | wind direction | speed KPH | gust KPH | rain 1hr cm | rain 24hr cm | rain mn cm | humidity % | barometer mb |
| 20260906051512 | 21 | 170 | 3.2 | 6.4 | 0.00 | 0.00 | 0.00 | 51 | 1013.2 |
| 20260906050012 | 22 | 169 | 3.2 | 8.0 | 0.00 | 0.00 | 0.00 | 51 | 1013.1 |
| 20260906044505 | 22 | 158 | 1.6 | 4.8 | 0.00 | 0.00 | 0.00 | 51 | 1013.2 |
| 20260906043003 | 22 | 170 | 3.2 | 6.4 | 0.00 | 0.00 | 0.00 | 50 | 1013.0 |
| 20260906041600 | 22 | 171 | 4.8 | 9.7 | 0.00 | 0.00 | 0.00 | 51 | 1012.8 |
| 20260906040057 | 22 | 176 | 1.6 | 4.8 | 0.00 | 0.00 | 0.00 | 51 | 1012.8 |
| 20260906034600 | 22 | 169 | 1.6 | 6.4 | 0.00 | 0.00 | 0.00 | 54 | 1012.8 |
| 20260906033056 | 23 | 169 | 0.0 | 6.4 | 0.00 | 0.00 | 0.00 | 54 | 1012.8 |
| 20260906031617 | 23 | 171 | 0.0 | 6.4 | 0.00 | 0.00 | 0.00 | 53 | 1012.7 |
| 20260906030053 | 23 | 180 | 3.2 | 8.0 | 0.00 | 0.00 | 0.00 | 53 | 1012.7 |
| 20260906024556 | 23 | 178 | 0.0 | 8.0 | 0.00 | 0.00 | 0.00 | 53 | 1012.7 |
| 20260906023107 | 23 | 195 | 3.2 | 9.7 | 0.00 | 0.00 | 0.00 | 52 | 1012.5 |
| 20260906021554 | 23 | 205 | 6.4 | 11.3 | 0.00 | 0.00 | 0.00 | 54 | 1012.5 |
| 20260906020057 | 23 | 166 | 4.8 | 11.3 | 0.00 | 0.00 | 0.00 | 55 | 1012.5 |
| 20260906014551 | 23 | 169 | 0.0 | 4.8 | 0.00 | 0.00 | 0.00 | 58 | 1012.0 |
| 20260906013051 | 23 | 167 | 0.0 | 4.8 | 0.00 | 0.00 | 0.00 | 61 | 1011.8 |
| 20260906011553 | 23 | 170 | 0.0 | 0.0 | 0.00 | 0.00 | 0.00 | 61 | 1011.4 |
| 20260906010050 | 23 | 170 | 0.0 | 0.0 | 0.00 | 0.00 | 0.00 | 61 | 1011.3 |
| 20260906004556 | 23 | 162 | 0.0 | 0.0 | 0.00 | 0.00 | 0.00 | 63 | 1011.3 |
| 20260906003052 | 23 | 162 | 0.0 | 0.0 | 0.00 | 0.00 | 0.00 | 63 | 1010.7 |
| 20260906001549 | 24 | 162 | 0.0 | 0.0 | 0.00 | 0.00 | 0.00 | 62 | 1010.8 |
| 20260906000058 | 24 | 162 | 0.0 | 0.0 | 0.00 | 0.00 | 0.00 | 61 | 1010.7 |
| 20260905234548 | 25 | 162 | 0.0 | 3.2 | 0.00 | 0.00 | 0.00 | 62 | 1010.8 |
| 20260905233051 | 25 | 167 | 0.0 | 6.4 | 0.00 | 0.00 | 0.00 | 61 | 1010.6 |
| 20260905231549 | 25 | 166 | 1.6 | 8.0 | 0.00 | 0.00 | 0.00 | 60 | 1010.9 |
| 20260905230044 | 26 | 172 | 4.8 | 11.3 | 0.00 | 0.00 | 0.00 | 57 | 1011.1 |
| 20260905224544 | 28 | 175 | 6.4 | 16.1 | 0.00 | 0.00 | 0.00 | 55 | 1011.1 |
| 20260905223043 | 32 | 160 | 9.7 | 17.7 | 0.00 | 0.00 | 0.00 | 49 | 1010.5 |
| 20260905221559 | 32 | 155 | 0.0 | 6.4 | 0.00 | 0.00 | 0.00 | 48 | 1009.8 |
| 20260905220042 | 33 | 149 | 0.0 | 0.0 | 0.00 | 0.00 | 0.00 | 49 | 1010.1 |
| 20260905214541 | 32 | 150 | 0.0 | 1.6 | 0.00 | 0.00 | 0.00 | 51 | 1010.1 |
| 20260905213040 | 31 | 150 | 0.0 | 3.2 | 0.00 | 0.00 | 0.00 | 50 | 1010.1 |
| 20260905211538 | 32 | 145 | 0.0 | 3.2 | 0.00 | 0.00 | 0.00 | 48 | 1009.9 |
| 20260905210036 | 32 | 134 | 0.0 | 3.2 | 0.00 | 0.00 | 0.00 | 48 | 1010.2 |
| 20260905204540 | 33 | 130 | 0.0 | 1.6 | 0.00 | 0.00 | 0.00 | 46 | 1010.4 |
| 20260905203034 | 33 | 133 | 1.6 | 8.0 | 0.00 | 0.00 | 0.00 | 44 | 1010.5 |
| 20260905201531 | 34 | 105 | 4.8 | 9.7 | 0.00 | 0.00 | 0.00 | 42 | 1010.6 |
| 20260905200031 | 33 | 123 | 0.0 | 8.0 | 0.00 | 0.00 | 0.00 | 44 | 1010.6 |
| 20260905194526 | 33 | 136 | 1.6 | 4.8 | 0.00 | 0.00 | 0.00 | 43 | 1010.8 |
| 20260905193024 | 33 | 153 | 0.0 | 9.7 | 0.00 | 0.00 | 0.00 | 43 | 1011.0 |
| 20260905191521 | 32 | 108 | 3.2 | 14.5 | 0.00 | 0.00 | 0.00 | 42 | 1011.1 |
| 20260905190028 | 33 | 129 | 0.0 | 12.9 | 0.00 | 0.00 | 0.00 | 44 | 1011.4 |
| 20260905184517 | 32 | 108 | 1.6 | 6.4 | 0.00 | 0.03 | 0.00 | 45 | 1011.5 |
| 20260905183016 | 31 | 117 | 3.2 | 11.3 | 0.00 | 0.03 | 0.00 | 44 | 1011.9 |
| 20260905181513 | 31 | 119 | 1.6 | 9.7 | 0.00 | 0.03 | 0.00 | 45 | 1012.0 |
| 20260905180012 | 31 | 105 | 4.8 | 12.9 | 0.00 | 0.03 | 0.00 | 44 | 1012.0 |
| 20260905174512 | 31 | 115 | 3.2 | 9.7 | 0.00 | 0.03 | 0.00 | 45 | 1012.1 |
| 20260905173008 | 31 | 92 | 1.6 | 9.7 | 0.00 | 0.03 | 0.00 | 46 | 1012.3 |
| 20260905171504 | 30 | 38 | 3.2 | 9.7 | 0.00 | 0.03 | 0.00 | 47 | 1012.5 |
| 20260905170001 | 30 | 104 | 1.6 | 8.0 | 0.00 | 0.03 | 0.00 | 46 | 1012.7 |
| 20260905164603 | 29 | 99 | 1.6 | 8.0 | 0.00 | 0.03 | 0.00 | 46 | 1013.0 |
| 20260905163055 | 28 | 82 | 0.0 | 4.8 | 0.00 | 0.03 | 0.00 | 51 | 1013.2 |
| 20260905161554 | 27 | 256 | 0.0 | 1.6 | 0.00 | 0.03 | 0.00 | 50 | 1013.5 |
| 20260905160058 | 28 | 267 | 0.0 | 4.8 | 0.00 | 0.03 | 0.00 | 48 | 1013.5 |
| 20260905154555 | 28 | 106 | 3.2 | 11.3 | 0.00 | 0.03 | 0.00 | 47 | 1013.4 |
| 20260905153051 | 28 | 117 | 3.2 | 9.7 | 0.00 | 0.03 | 0.00 | 47 | 1013.2 |
| 20260905151548 | 27 | 241 | 1.6 | 6.4 | 0.00 | 0.03 | 0.00 | 50 | 1013.3 |
| 20260905150045 | 26 | 217 | 1.6 | 8.0 | 0.00 | 0.03 | 0.00 | 51 | 1013.2 |
| 20260905144545 | 26 | 86 | 4.8 | 14.5 | 0.00 | 0.03 | 0.00 | 49 | 1013.1 |
| 20260905143041 | 26 | 243 | 3.2 | 9.7 | 0.00 | 0.03 | 0.00 | 53 | 1013.4 |
| 20260905141538 | 25 | 90 | 1.6 | 9.7 | 0.00 | 0.03 | 0.00 | 54 | 1013.5 |
| 20260905140036 | 24 | 336 | 3.2 | 11.3 | 0.00 | 0.03 | 0.00 | 55 | 1013.5 |
| 20260905134533 | 24 | 193 | 0.0 | 4.8 | 0.00 | 0.03 | 0.00 | 54 | 1013.6 |
| 20260905133032 | 22 | 269 | 4.8 | 11.3 | 0.00 | 0.03 | 0.00 | 56 | 1013.7 |
| 20260905131532 | 23 | 278 | 1.6 | 8.0 | 0.00 | 0.03 | 0.00 | 55 | 1014.0 |
| 20260905130030 | 22 | 274 | 3.2 | 11.3 | 0.00 | 0.03 | 0.00 | 55 | 1013.7 |
| 20260905124528 | 22 | 259 | 3.2 | 9.7 | 0.00 | 0.03 | 0.00 | 55 | 1013.5 |
| 20260905123028 | 21 | 286 | 4.8 | 11.3 | 0.00 | 0.03 | 0.00 | 55 | 1013.5 |
| 20260905121527 | 21 | 264 | 3.2 | 8.0 | 0.00 | 0.03 | 0.00 | 56 | 1013.4 |
| 20260905120037 | 21 | 263 | 1.6 | 8.0 | 0.00 | 0.03 | 0.00 | 56 | 1013.5 |
| 20260905114526 | 21 | 257 | 1.6 | 9.7 | 0.00 | 0.03 | 0.00 | 55 | 1013.6 |
| 20260905113028 | 21 | 249 | 4.8 | 9.7 | 0.00 | 0.03 | 0.00 | 55 | 1013.3 |
| 20260905111539 | 21 | 232 | 1.6 | 8.0 | 0.00 | 0.03 | 0.00 | 55 | 1013.3 |
| 20260905110023 | 21 | 291 | 1.6 | 11.3 | 0.00 | 0.03 | 0.00 | 55 | 1013.5 |
| 20260905104518 | 21 | 259 | 4.8 | 11.3 | 0.00 | 0.03 | 0.00 | 54 | 1013.4 |
| 20260905103023 | 22 | 195 | 1.6 | 6.4 | 0.00 | 0.03 | 0.00 | 53 | 1013.5 |
| 20260905101513 | 22 | 159 | 1.6 | 9.7 | 0.00 | 0.03 | 0.00 | 49 | 1013.2 |
| 20260905100011 | 22 | 107 | 0.0 | 0.0 | 0.00 | 0.03 | 0.00 | 56 | 1012.1 |
| 20260905094510 | 22 | 107 | 0.0 | 0.0 | 0.00 | 0.00 | 0.00 | 55 | 1012.1 |
| 20260905093010 | 22 | 107 | 0.0 | 0.0 | 0.00 | 0.03 | 0.00 | 54 | 1012.1 |
| 20260905091508 | 22 | 107 | 0.0 | 0.0 | 0.00 | 0.03 | 0.00 | 53 | 1012.0 |
| 20260905090008 | 22 | 107 | 0.0 | 1.6 | 0.00 | 0.03 | 0.00 | 51 | 1012.0 |
| 20260905084504 | 22 | 107 | 0.0 | 0.0 | 0.00 | 0.03 | 0.00 | 50 | 1012.0 |
| 20260905083103 | 22 | 107 | 0.0 | 0.0 | 0.00 | 0.03 | 0.00 | 50 | 1012.0 |
| 20260905081502 | 23 | 107 | 0.0 | 0.0 | 0.00 | 0.03 | 0.00 | 50 | 1011.9 |
| 20260905080001 | 23 | 107 | 0.0 | 0.0 | 0.00 | 0.03 | 0.00 | 49 | 1011.8 |
| 20260905074604 | 23 | 107 | 0.0 | 1.6 | 0.00 | 0.03 | 0.00 | 49 | 1011.5 |
| 20260905073103 | 23 | 107 | 0.0 | 1.6 | 0.00 | 0.03 | 0.00 | 50 | 1011.0 |
| 20260905071558 | 23 | 124 | 0.0 | 1.6 | 0.00 | 0.03 | 0.00 | 49 | 1011.2 |
| 20260905070101 | 23 | 151 | 0.0 | 1.6 | 0.00 | 0.03 | 0.00 | 49 | 1011.2 |
| 20260905064611 | 23 | 271 | 0.0 | 3.2 | 0.00 | 0.03 | 0.00 | 49 | 1011.5 |
| 20260905063052 | 24 | 115 | 0.0 | 3.2 | 0.00 | 0.03 | 0.00 | 49 | 1011.7 |
| 20260905061550 | 23 | 154 | 0.0 | 1.6 | 0.00 | 0.03 | 0.00 | 48 | 1012.0 |
| 20260905060048 | 23 | 134 | 0.0 | 3.2 | 0.00 | 0.03 | 0.00 | 48 | 1012.1 |
| 20260905054550 | 23 | 174 | 0.0 | 0.0 | 0.00 | 0.03 | 0.00 | 48 | 1012.1 |
| 20260905053044 | 23 | 174 | 0.0 | 0.0 | 0.00 | 0.03 | 0.00 | 48 | 1012.4 |